Time;durP1;ratioP1;P1;durP2;ratioP2;P2;SDS_P1;SDS_P2;PMS_P1;PMS_P2;Temp;Humidity;BMP_temperature;BMP_pressure;BME280_temperature;BME280_humidity;BME280_pressure;Samples;Min_cycle;Max_cycle;Signal;HPM_P1;HPM_P2
2021/12/23 00:00:01;;;;;;;9.15;7.07;;;;;;;;;;5049834;28;20219;-72
2021/12/23 00:02:28;;;;;;;9.75;7.45;;;;;;;;;;5041555;28;20201;-72
2021/12/23 00:04:55;;;;;;;9.80;7.88;;;;;;;;;;5044679;28;20241;-72
2021/12/23 00:07:22;;;;;;;10.10;8.70;;;;;;;;;;5049410;28;20202;-72
2021/12/23 00:12:35;;;;;;;9.93;8.20;;;;;;;;;;5053664;28;20565;-71
2021/12/23 00:15:03;;;;;;;10.00;7.85;;;;;;;;;;5046103;28;20198;-72
2021/12/23 00:17:54;;;;;;;8.73;7.13;;;;;;;;;;5049834;28;20230;-72
2021/12/23 00:25:52;;;;;;;7.75;6.75;;;;;;;;;;5041163;28;20189;-72
2021/12/23 00:28:21;;;;;;;9.63;7.70;;;;;;;;;;5050995;28;20646;-71
2021/12/23 00:30:48;;;;;;;11.07;7.32;;;;;;;;;;5048594;28;20218;-71
2021/12/23 00:33:15;;;;;;;11.10;7.53;;;;;;;;;;5048420;28;20211;-72
2021/12/23 00:35:42;;;;;;;10.43;7.30;;;;;;;;;;5049851;28;20437;-72
2021/12/23 00:38:17;;;;;;;9.60;7.22;;;;;;;;;;5059455;28;20199;-71
2021/12/23 00:40:44;;;;;;;11.07;8.48;;;;;;;;;;5048929;28;20194;-71
2021/12/23 00:43:11;;;;;;;10.07;8.35;;;;;;;;;;5059018;28;20198;-72
2021/12/23 00:45:39;;;;;;;8.80;7.85;;;;;;;;;;5049531;28;20578;-72
2021/12/23 00:48:07;;;;;;;10.82;7.95;;;;;;;;;;5050081;28;20562;-73
2021/12/23 00:50:34;;;;;;;11.45;8.25;;;;;;;;;;5044878;28;20226;-72
2021/12/23 00:53:06;;;;;;;13.25;8.80;;;;;;;;;;5041725;28;20682;-71
2021/12/23 00:55:33;;;;;;;8.63;7.47;;;;;;;;;;5043394;28;20203;-72
2021/12/23 00:58:00;;;;;;;10.02;7.30;;;;;;;;;;5048249;28;20850;-72
2021/12/23 01:00:28;;;;;;;9.77;7.97;;;;;;;;;;5049268;28;20213;-71
2021/12/23 01:02:59;;;;;;;12.32;9.40;;;;;;;;;;5038078;28;20203;-73
2021/12/23 01:05:26;;;;;;;10.50;8.05;;;;;;;;;;5050408;28;20205;-71
2021/12/23 01:07:53;;;;;;;9.35;7.32;;;;;;;;;;5043227;28;20201;-73
2021/12/23 01:10:23;;;;;;;9.80;7.63;;;;;;;;;;5046615;28;20211;-72
2021/12/23 01:12:54;;;;;;;9.90;7.43;;;;;;;;;;5039792;28;20229;-72
2021/12/23 01:15:39;;;;;;;10.77;9.05;;;;;;;;;;5049671;28;20289;-72
2021/12/23 01:18:12;;;;;;;7.22;6.53;;;;;;;;;;5043695;28;20225;-71
2021/12/23 01:20:40;;;;;;;10.60;8.60;;;;;;;;;;5047934;28;20191;-73
2021/12/23 01:23:08;;;;;;;9.13;7.40;;;;;;;;;;5053524;28;20194;-72
2021/12/23 01:25:36;;;;;;;9.23;6.82;;;;;;;;;;5049964;28;20203;-72
2021/12/23 01:28:04;;;;;;;9.40;7.38;;;;;;;;;;5053280;28;20203;-74
2021/12/23 01:30:31;;;;;;;8.82;7.10;;;;;;;;;;5051253;28;20207;-72
2021/12/23 01:32:58;;;;;;;9.50;7.28;;;;;;;;;;5053018;28;20202;-72
2021/12/23 01:35:27;;;;;;;10.93;8.40;;;;;;;;;;5053993;28;20573;-72
2021/12/23 01:37:54;;;;;;;8.50;7.57;;;;;;;;;;5053762;28;20202;-72
2021/12/23 01:40:24;;;;;;;9.25;7.43;;;;;;;;;;5051026;28;20280;-75
2021/12/23 01:42:51;;;;;;;10.38;7.47;;;;;;;;;;5050679;28;20609;-72
2021/12/23 01:45:19;;;;;;;10.60;7.53;;;;;;;;;;5052937;28;20202;-72
2021/12/23 01:47:47;;;;;;;8.90;7.57;;;;;;;;;;5051528;28;20222;-72
2021/12/23 01:50:23;;;;;;;8.63;6.47;;;;;;;;;;5052230;28;20214;-73
2021/12/23 01:52:52;;;;;;;10.68;6.65;;;;;;;;;;5052638;28;20194;-72
2021/12/23 01:55:19;;;;;;;11.23;6.97;;;;;;;;;;5051289;28;20200;-71
2021/12/23 01:57:46;;;;;;;10.93;8.45;;;;;;;;;;5053695;28;20650;-73
2021/12/23 02:00:15;;;;;;;8.32;6.78;;;;;;;;;;5050891;28;20222;-72
2021/12/23 02:02:42;;;;;;;10.25;7.97;;;;;;;;;;5040199;28;20201;-72
2021/12/23 02:05:10;;;;;;;9.70;7.68;;;;;;;;;;5049851;28;20195;-71
2021/12/23 02:07:37;;;;;;;9.63;6.95;;;;;;;;;;5051705;28;20215;-72
2021/12/23 02:10:08;;;;;;;10.60;7.70;;;;;;;;;;5052551;28;20218;-74
2021/12/23 02:12:35;;;;;;;9.30;6.90;;;;;;;;;;5044175;28;20205;-72
2021/12/23 02:15:02;;;;;;;9.57;6.90;;;;;;;;;;5052193;28;20199;-72
2021/12/23 02:17:29;;;;;;;9.75;8.23;;;;;;;;;;5045178;28;20199;-73
2021/12/23 02:19:58;;;;;;;9.30;7.32;;;;;;;;;;5051939;28;20191;-72
2021/12/23 02:22:25;;;;;;;7.85;6.93;;;;;;;;;;5052068;28;20293;-72
2021/12/23 02:24:52;;;;;;;9.88;7.30;;;;;;;;;;5049808;28;20199;-72
2021/12/23 02:27:19;;;;;;;7.45;6.75;;;;;;;;;;5045423;28;20191;-72
2021/12/23 02:29:46;;;;;;;10.45;7.03;;;;;;;;;;5049252;28;20297;-72
2021/12/23 02:32:13;;;;;;;8.05;7.13;;;;;;;;;;5047322;28;20203;-72
2021/12/23 02:34:40;;;;;;;8.02;6.40;;;;;;;;;;5050445;28;20699;-72
2021/12/23 02:37:09;;;;;;;9.63;7.32;;;;;;;;;;5050786;28;20256;-73
2021/12/23 02:39:36;;;;;;;9.15;7.32;;;;;;;;;;5046029;28;20276;-72
2021/12/23 02:42:05;;;;;;;8.60;7.25;;;;;;;;;;5050480;28;20195;-73
2021/12/23 02:44:32;;;;;;;12.05;7.22;;;;;;;;;;5052305;28;20571;-73
2021/12/23 02:46:59;;;;;;;7.55;6.05;;;;;;;;;;5048652;28;20199;-72
2021/12/23 02:49:26;;;;;;;8.90;7.82;;;;;;;;;;5051665;28;20277;-72
2021/12/23 02:51:53;;;;;;;8.50;6.68;;;;;;;;;;5051250;28;20705;-73
2021/12/23 02:54:22;;;;;;;10.35;7.63;;;;;;;;;;5050095;28;20195;-72
2021/12/23 02:56:49;;;;;;;7.25;6.55;;;;;;;;;;5048299;28;20199;-71
2021/12/23 02:59:16;;;;;;;6.82;6.13;;;;;;;;;;5061375;28;20701;-72
2021/12/23 03:01:43;;;;;;;7.95;7.13;;;;;;;;;;5051635;28;20203;-72
2021/12/23 03:04:10;;;;;;;7.30;6.13;;;;;;;;;;5047020;28;20199;-72
2021/12/23 03:06:37;;;;;;;10.63;6.82;;;;;;;;;;5050496;28;20207;-72
2021/12/23 03:09:05;;;;;;;8.38;5.93;;;;;;;;;;5048005;28;20582;-72
2021/12/23 03:11:33;;;;;;;8.88;6.53;;;;;;;;;;5050790;28;20215;-72
2021/12/23 03:14:01;;;;;;;6.82;6.03;;;;;;;;;;5051945;28;20206;-71
2021/12/23 03:16:30;;;;;;;7.97;6.30;;;;;;;;;;5050616;28;20206;-72
2021/12/23 03:18:58;;;;;;;8.48;6.43;;;;;;;;;;5050013;28;20563;-71
2021/12/23 03:21:25;;;;;;;7.32;6.65;;;;;;;;;;5052414;28;20642;-72
2021/12/23 03:23:52;;;;;;;6.85;5.93;;;;;;;;;;5041305;28;20207;-71
2021/12/23 03:26:19;;;;;;;8.52;6.38;;;;;;;;;;5057367;28;20224;-71
2021/12/23 03:28:47;;;;;;;7.25;5.90;;;;;;;;;;5051053;28;20210;-72
2021/12/23 03:31:15;;;;;;;8.75;7.82;;;;;;;;;;5061242;28;20214;-72
2021/12/23 03:33:42;;;;;;;8.50;6.10;;;;;;;;;;5041319;28;20201;-71
2021/12/23 03:36:09;;;;;;;8.50;6.78;;;;;;;;;;5053531;28;20190;-74
2021/12/23 03:38:36;;;;;;;10.38;6.93;;;;;;;;;;5049606;28;20922;-74
2021/12/23 03:41:04;;;;;;;8.80;5.75;;;;;;;;;;5048077;28;20199;-72
2021/12/23 03:43:31;;;;;;;7.25;6.45;;;;;;;;;;5048844;28;20511;-73
2021/12/23 03:45:59;;;;;;;8.32;6.35;;;;;;;;;;5049941;28;20535;-72
2021/12/23 03:48:26;;;;;;;6.22;5.43;;;;;;;;;;5047148;28;20210;-72
2021/12/23 03:50:53;;;;;;;9.75;6.85;;;;;;;;;;5043917;28;20224;-72
2021/12/23 03:53:20;;;;;;;9.02;6.45;;;;;;;;;;5050338;28;20207;-73
2021/12/23 03:55:48;;;;;;;8.65;6.25;;;;;;;;;;5049214;28;20654;-73
2021/12/23 03:58:15;;;;;;;6.45;5.80;;;;;;;;;;5050731;28;20207;-73
2021/12/23 04:00:42;;;;;;;9.35;6.15;;;;;;;;;;5049366;28;20214;-73
2021/12/23 04:03:11;;;;;;;9.60;7.13;;;;;;;;;;5046940;28;20210;-73
2021/12/23 04:05:38;;;;;;;8.15;7.13;;;;;;;;;;5049784;28;20207;-73
2021/12/23 04:08:05;;;;;;;6.85;5.60;;;;;;;;;;5053523;28;20203;-73
2021/12/23 04:10:33;;;;;;;9.27;6.28;;;;;;;;;;5048444;28;20225;-73
2021/12/23 04:13:00;;;;;;;7.40;6.20;;;;;;;;;;5048829;28;20252;-73
2021/12/23 04:15:27;;;;;;;8.32;7.15;;;;;;;;;;5037128;28;20605;-74
2021/12/23 04:17:54;;;;;;;7.32;6.57;;;;;;;;;;5049790;28;20570;-73
2021/12/23 04:20:31;;;;;;;7.65;6.05;;;;;;;;;;5038732;28;20199;-73
2021/12/23 04:22:58;;;;;;;7.80;7.05;;;;;;;;;;5050024;28;20194;-73
2021/12/23 04:25:27;;;;;;;8.68;7.47;;;;;;;;;;5048236;28;20199;-74
2021/12/23 04:27:57;;;;;;;7.30;6.60;;;;;;;;;;5046890;28;20647;-72
2021/12/23 04:30:24;;;;;;;9.35;7.20;;;;;;;;;;5053112;28;20218;-73
2021/12/23 04:32:51;;;;;;;8.05;6.15;;;;;;;;;;5048018;28;20207;-72
2021/12/23 04:35:18;;;;;;;9.30;7.47;;;;;;;;;;5044116;28;20200;-72
2021/12/23 04:37:47;;;;;;;7.32;5.75;;;;;;;;;;5047301;28;20205;-71
2021/12/23 04:40:14;;;;;;;7.68;6.53;;;;;;;;;;5049631;28;20563;-74
2021/12/23 04:42:42;;;;;;;7.20;6.50;;;;;;;;;;5047523;28;20202;-74
2021/12/23 04:45:09;;;;;;;8.75;7.00;;;;;;;;;;5050432;28;20301;-73
2021/12/23 04:47:37;;;;;;;9.20;6.78;;;;;;;;;;5042908;28;20646;-73
2021/12/23 04:50:04;;;;;;;8.90;7.07;;;;;;;;;;5047233;28;20198;-73
2021/12/23 04:52:31;;;;;;;8.30;6.88;;;;;;;;;;5050430;28;20207;-72
2021/12/23 04:55:00;;;;;;;9.68;7.35;;;;;;;;;;5046673;28;20195;-72
2021/12/23 04:57:27;;;;;;;8.30;6.50;;;;;;;;;;5048544;28;20272;-72
2021/12/23 04:59:54;;;;;;;8.20;6.70;;;;;;;;;;5047308;28;20720;-74
2021/12/23 05:02:21;;;;;;;7.75;6.38;;;;;;;;;;5050027;28;20198;-73
2021/12/23 05:04:50;;;;;;;9.45;6.88;;;;;;;;;;5054391;28;20202;-74
2021/12/23 05:07:17;;;;;;;8.75;6.90;;;;;;;;;;5046944;28;20543;-73
2021/12/23 05:09:44;;;;;;;7.90;7.05;;;;;;;;;;5047829;28;20281;-73
2021/12/23 05:12:13;;;;;;;11.40;7.57;;;;;;;;;;5048185;28;20214;-72
2021/12/23 05:14:40;;;;;;;7.00;6.30;;;;;;;;;;5048748;28;20206;-73
2021/12/23 05:17:07;;;;;;;8.52;6.65;;;;;;;;;;5046138;28;20202;-73
2021/12/23 05:19:34;;;;;;;7.68;6.35;;;;;;;;;;5043581;28;20191;-73
2021/12/23 05:22:01;;;;;;;8.75;6.65;;;;;;;;;;5045583;28;20207;-74
2021/12/23 05:24:28;;;;;;;10.00;6.93;;;;;;;;;;5050738;28;20668;-73
2021/12/23 05:26:55;;;;;;;9.50;7.40;;;;;;;;;;5044934;28;20605;-73
2021/12/23 05:29:24;;;;;;;8.48;6.50;;;;;;;;;;5048773;28;20928;-74
2021/12/23 05:31:51;;;;;;;10.35;7.32;;;;;;;;;;5039641;28;20242;-74
2021/12/23 05:34:18;;;;;;;7.60;6.30;;;;;;;;;;5057136;28;20191;-73
2021/12/23 05:36:45;;;;;;;10.48;7.60;;;;;;;;;;5046652;28;20210;-74
2021/12/23 05:39:12;;;;;;;8.80;6.70;;;;;;;;;;5049157;28;20198;-72
2021/12/23 05:41:39;;;;;;;8.10;5.93;;;;;;;;;;5047760;28;20187;-74
2021/12/23 05:44:07;;;;;;;10.40;8.02;;;;;;;;;;5048517;28;20198;-72
2021/12/23 05:46:35;;;;;;;8.95;6.63;;;;;;;;;;5047588;28;20613;-73
2021/12/23 05:49:02;;;;;;;9.65;6.85;;;;;;;;;;5048468;28;20195;-73
2021/12/23 05:51:29;;;;;;;11.23;6.45;;;;;;;;;;5040415;28;20243;-74
2021/12/23 05:53:56;;;;;;;11.23;7.20;;;;;;;;;;5046319;28;20194;-74
2021/12/23 05:56:23;;;;;;;7.78;6.30;;;;;;;;;;5043463;28;20206;-75
2021/12/23 05:58:50;;;;;;;9.57;6.93;;;;;;;;;;5046279;28;20570;-73
2021/12/23 06:01:17;;;;;;;12.55;7.75;;;;;;;;;;5046465;28;20211;-74
2021/12/23 06:03:46;;;;;;;8.68;7.22;;;;;;;;;;5041681;28;20674;-74
2021/12/23 06:06:14;;;;;;;8.05;6.53;;;;;;;;;;5046172;28;20306;-72
2021/12/23 06:08:41;;;;;;;9.05;6.80;;;;;;;;;;5044059;28;20667;-72
2021/12/23 06:11:08;;;;;;;9.10;6.57;;;;;;;;;;5048963;28;20693;-73
2021/12/23 06:13:36;;;;;;;10.20;7.32;;;;;;;;;;5050209;28;20203;-74
2021/12/23 06:16:03;;;;;;;9.48;6.82;;;;;;;;;;5050112;28;20962;-72
2021/12/23 06:18:30;;;;;;;10.05;7.25;;;;;;;;;;5050694;28;20233;-73
2021/12/23 06:20:59;;;;;;;9.63;8.57;;;;;;;;;;5052024;28;20653;-72
2021/12/23 06:23:26;;;;;;;8.70;6.90;;;;;;;;;;5055182;28;20569;-73
2021/12/23 06:25:53;;;;;;;11.80;7.50;;;;;;;;;;5050511;28;20203;-71
2021/12/23 06:28:20;;;;;;;10.65;7.50;;;;;;;;;;5050492;28;20209;-73
2021/12/23 06:30:47;;;;;;;8.05;6.65;;;;;;;;;;5051132;28;20671;-73
2021/12/23 06:33:14;;;;;;;10.88;6.82;;;;;;;;;;5051126;28;20206;-73
2021/12/23 06:35:42;;;;;;;7.57;6.60;;;;;;;;;;5050797;28;20773;-72
2021/12/23 06:38:11;;;;;;;10.80;7.78;;;;;;;;;;5049010;28;20199;-73
2021/12/23 06:40:39;;;;;;;13.23;7.78;;;;;;;;;;5048265;28;20765;-75
2021/12/23 06:43:06;;;;;;;8.55;7.07;;;;;;;;;;5047951;28;20217;-73
2021/12/23 06:45:33;;;;;;;9.90;7.32;;;;;;;;;;5050101;28;20191;-73
2021/12/23 06:48:00;;;;;;;8.20;6.97;;;;;;;;;;5046461;28;20203;-72
2021/12/23 06:50:27;;;;;;;9.45;7.40;;;;;;;;;;5050514;28;20206;-73
2021/12/23 06:52:55;;;;;;;8.00;7.20;;;;;;;;;;5051688;28;20574;-72
2021/12/23 06:55:23;;;;;;;10.05;8.65;;;;;;;;;;5050946;28;20199;-72
2021/12/23 06:57:55;;;;;;;8.45;6.65;;;;;;;;;;5051362;28;20213;-72
2021/12/23 07:00:22;;;;;;;9.13;6.50;;;;;;;;;;5041952;28;20226;-73
2021/12/23 07:02:49;;;;;;;10.68;7.78;;;;;;;;;;5046594;28;20653;-73
2021/12/23 07:05:17;;;;;;;10.90;6.78;;;;;;;;;;5051007;28;20292;-72
2021/12/23 07:07:55;;;;;;;10.23;8.25;;;;;;;;;;5050550;28;20586;-73
2021/12/23 07:10:24;;;;;;;10.23;7.90;;;;;;;;;;5046612;28;20206;-72
2021/12/23 07:12:51;;;;;;;9.32;7.55;;;;;;;;;;5042671;28;20207;-74
2021/12/23 07:15:18;;;;;;;10.90;7.95;;;;;;;;;;5051275;28;20589;-73
2021/12/23 07:17:45;;;;;;;9.55;7.72;;;;;;;;;;5045949;28;20610;-73
2021/12/23 07:20:13;;;;;;;8.93;7.50;;;;;;;;;;5041742;28;20187;-72
2021/12/23 07:22:40;;;;;;;10.32;8.43;;;;;;;;;;5043423;28;20191;-72
2021/12/23 07:25:08;;;;;;;15.63;7.63;;;;;;;;;;5048425;28;20203;-73
2021/12/23 07:27:37;;;;;;;8.40;7.20;;;;;;;;;;5040977;28;20202;-74
2021/12/23 07:30:04;;;;;;;10.35;8.50;;;;;;;;;;5055816;28;20190;-73
2021/12/23 07:32:31;;;;;;;12.93;8.75;;;;;;;;;;5049039;28;20222;-72
2021/12/23 07:34:58;;;;;;;10.80;8.23;;;;;;;;;;5034565;28;21001;-72
2021/12/23 07:37:25;;;;;;;11.05;8.10;;;;;;;;;;5051181;28;20390;-73
2021/12/23 07:39:54;;;;;;;8.70;7.80;;;;;;;;;;5048498;28;20256;-73
2021/12/23 07:42:22;;;;;;;12.55;9.02;;;;;;;;;;5048569;28;20305;-74
2021/12/23 07:44:50;;;;;;;11.85;8.15;;;;;;;;;;5042849;28;20203;-74
2021/12/23 07:47:18;;;;;;;7.78;6.60;;;;;;;;;;5045905;28;20658;-74
2021/12/23 07:49:45;;;;;;;12.55;9.07;;;;;;;;;;5055464;28;20285;-73
2021/12/23 07:52:13;;;;;;;10.25;8.02;;;;;;;;;;5049370;28;20578;-74
2021/12/23 07:54:40;;;;;;;10.10;7.32;;;;;;;;;;5049934;28;20685;-73
2021/12/23 07:57:07;;;;;;;10.13;7.75;;;;;;;;;;5048378;28;20226;-74
2021/12/23 07:59:34;;;;;;;12.23;8.85;;;;;;;;;;5047858;28;20222;-74
2021/12/23 08:02:03;;;;;;;11.55;8.10;;;;;;;;;;5047376;28;20193;-75
2021/12/23 08:04:30;;;;;;;10.43;8.07;;;;;;;;;;5048598;28;20206;-75
2021/12/23 08:06:58;;;;;;;10.90;8.35;;;;;;;;;;5048447;28;20206;-73
2021/12/23 08:09:26;;;;;;;11.50;10.32;;;;;;;;;;5046486;28;20662;-74
2021/12/23 08:11:53;;;;;;;14.73;8.90;;;;;;;;;;5052295;28;20704;-74
2021/12/23 08:14:21;;;;;;;9.98;7.55;;;;;;;;;;5049443;28;20690;-74
2021/12/23 08:16:48;;;;;;;12.32;9.07;;;;;;;;;;5047897;28;20230;-74
2021/12/23 08:19:16;;;;;;;10.82;7.57;;;;;;;;;;5049143;28;20195;-73
2021/12/23 08:21:44;;;;;;;11.77;9.48;;;;;;;;;;5050277;28;20210;-73
2021/12/23 08:24:11;;;;;;;10.90;9.02;;;;;;;;;;5049140;28;20195;-73
2021/12/23 08:26:42;;;;;;;13.88;8.93;;;;;;;;;;5045402;28;20202;-73
2021/12/23 08:29:09;;;;;;;12.90;9.15;;;;;;;;;;5048086;28;20294;-73
2021/12/23 08:31:37;;;;;;;11.57;8.80;;;;;;;;;;5044907;28;20245;-75
2021/12/23 08:34:04;;;;;;;10.55;8.75;;;;;;;;;;5049542;28;20199;-73
2021/12/23 08:36:33;;;;;;;11.38;8.55;;;;;;;;;;5049115;28;20653;-71
2021/12/23 08:39:00;;;;;;;9.48;8.48;;;;;;;;;;5052052;28;20195;-73
2021/12/23 08:41:27;;;;;;;11.65;9.05;;;;;;;;;;5045650;28;20649;-73
2021/12/23 08:43:54;;;;;;;14.05;10.77;;;;;;;;;;5047881;28;20601;-73
2021/12/23 08:46:21;;;;;;;9.85;7.97;;;;;;;;;;5050409;28;20649;-73
2021/12/23 08:48:48;;;;;;;11.70;8.75;;;;;;;;;;5043371;28;20200;-74
2021/12/23 08:51:16;;;;;;;11.60;8.13;;;;;;;;;;5046706;28;20206;-73
2021/12/23 08:53:44;;;;;;;12.88;7.85;;;;;;;;;;5048596;28;20215;-73
2021/12/23 08:56:11;;;;;;;16.58;10.35;;;;;;;;;;5043664;28;20206;-74
2021/12/23 08:58:39;;;;;;;13.85;9.75;;;;;;;;;;5042322;28;20202;-74
2021/12/23 09:01:07;;;;;;;10.88;9.00;;;;;;;;;;5047887;28;20222;-73
2021/12/23 09:03:34;;;;;;;14.52;9.40;;;;;;;;;;5047880;28;20198;-73
2021/12/23 09:06:01;;;;;;;11.93;9.15;;;;;;;;;;5047383;28;20636;-73
2021/12/23 09:08:28;;;;;;;11.32;9.30;;;;;;;;;;5042203;28;20198;-73
2021/12/23 09:10:57;;;;;;;13.60;9.38;;;;;;;;;;5052736;28;20205;-73
2021/12/23 09:13:24;;;;;;;11.52;10.43;;;;;;;;;;5048112;28;20233;-73
2021/12/23 09:15:52;;;;;;;15.35;11.48;;;;;;;;;;5051681;28;20202;-74
2021/12/23 09:18:19;;;;;;;14.38;10.45;;;;;;;;;;5049844;28;20249;-73
2021/12/23 09:20:47;;;;;;;14.05;10.05;;;;;;;;;;5049534;28;20191;-73
2021/12/23 09:23:14;;;;;;;13.70;10.80;;;;;;;;;;5048691;28;20195;-74
2021/12/23 09:25:41;;;;;;;14.45;10.63;;;;;;;;;;5045514;28;20218;-73
2021/12/23 09:28:24;;;;;;;12.90;10.60;;;;;;;;;;5049139;28;20669;-73
2021/12/23 09:33:36;;;;;;;13.32;8.80;;;;;;;;;;5050158;28;20225;-73
2021/12/23 09:36:04;;;;;;;14.20;10.13;;;;;;;;;;5048552;28;20199;-73
2021/12/23 09:38:31;;;;;;;13.38;10.25;;;;;;;;;;5046092;28;20203;-73
2021/12/23 09:40:59;;;;;;;14.30;9.80;;;;;;;;;;5045994;28;20203;-73
2021/12/23 09:43:28;;;;;;;16.77;11.43;;;;;;;;;;5050048;28;20555;-73
2021/12/23 09:45:56;;;;;;;16.80;10.55;;;;;;;;;;5051005;28;20199;-73
2021/12/23 09:48:23;;;;;;;14.10;11.32;;;;;;;;;;5048509;28;20202;-73
2021/12/23 09:50:51;;;;;;;13.60;10.13;;;;;;;;;;5041122;28;20226;-74
2021/12/23 09:53:20;;;;;;;13.18;10.10;;;;;;;;;;5050077;28;20211;-74
2021/12/23 09:55:47;;;;;;;16.27;12.50;;;;;;;;;;5052834;28;20203;-73
2021/12/23 09:58:14;;;;;;;13.73;9.90;;;;;;;;;;5040883;28;20199;-73
2021/12/23 10:00:45;;;;;;;13.43;10.15;;;;;;;;;;5049693;28;20702;-73
2021/12/23 10:03:13;;;;;;;14.05;10.35;;;;;;;;;;5049328;28;20603;-73
2021/12/23 10:05:40;;;;;;;15.93;12.32;;;;;;;;;;5051872;28;20199;-72
2021/12/23 10:08:09;;;;;;;12.13;9.68;;;;;;;;;;5044086;28;20270;-75
2021/12/23 10:10:41;;;;;;;14.45;11.45;;;;;;;;;;5039600;28;20207;-74
2021/12/23 10:26:55;;;;;;;14.20;9.43;;;;;;;;;;5045852;28;20371;-74
2021/12/23 10:30:26;;;;;;;12.95;10.23;;;;;;;;;;5048552;28;20661;-73
2021/12/23 10:33:13;;;;;;;12.15;8.88;;;;;;;;;;5036611;28;20227;-73
2021/12/23 10:38:26;;;;;;;13.02;9.05;;;;;;;;;;5046462;28;20202;-74
2021/12/23 10:40:55;;;;;;;13.07;10.18;;;;;;;;;;5046071;28;20207;-72
2021/12/23 10:43:25;;;;;;;13.45;10.30;;;;;;;;;;5049177;28;20659;-74
2021/12/23 10:45:55;;;;;;;13.18;9.60;;;;;;;;;;5056413;28;20206;-73
2021/12/23 10:48:25;;;;;;;13.02;10.05;;;;;;;;;;5032998;28;20203;-74
2021/12/23 10:50:58;;;;;;;13.63;9.40;;;;;;;;;;5044923;28;20293;-74
2021/12/23 10:53:35;;;;;;;15.63;10.80;;;;;;;;;;5050705;28;20677;-73
2021/12/23 10:59:01;;;;;;;10.52;8.68;;;;;;;;;;5050478;28;20198;-74
2021/12/23 11:01:28;;;;;;;14.45;9.73;;;;;;;;;;5043972;28;20239;-73
2021/12/23 11:04:01;;;;;;;15.68;9.60;;;;;;;;;;5043014;28;20222;-74
2021/12/23 11:06:33;;;;;;;14.82;10.27;;;;;;;;;;5046892;28;20294;-73
2021/12/23 11:09:15;;;;;;;13.93;9.82;;;;;;;;;;5047638;28;20230;-73
2021/12/23 11:37:06;;;;;;;12.25;8.88;;;;;;;;;;5040093;28;20198;-74
2021/12/23 11:39:47;;;;;;;11.23;7.82;;;;;;;;;;5057010;28;20202;-74
2021/12/23 11:42:22;;;;;;;11.73;9.23;;;;;;;;;;5048400;28;20662;-73
2021/12/23 11:44:50;;;;;;;11.50;9.30;;;;;;;;;;5044059;28;20199;-75
2021/12/23 11:47:17;;;;;;;11.77;9.68;;;;;;;;;;5040344;28;20404;-74
2021/12/23 11:49:46;;;;;;;10.10;7.90;;;;;;;;;;5045915;28;20658;-74
2021/12/23 11:52:16;;;;;;;12.85;9.38;;;;;;;;;;5047833;28;20202;-74
2021/12/23 11:54:44;;;;;;;9.82;8.55;;;;;;;;;;5046818;28;20205;-74
2021/12/23 11:57:14;;;;;;;9.77;7.85;;;;;;;;;;5044043;28;20194;-74
2021/12/23 11:59:43;;;;;;;11.63;8.50;;;;;;;;;;5043853;28;20567;-73
2021/12/23 12:02:15;;;;;;;10.90;6.85;;;;;;;;;;5045416;28;20206;-74
2021/12/23 12:04:42;;;;;;;10.80;8.15;;;;;;;;;;5049563;28;20273;-74
2021/12/23 12:07:17;;;;;;;8.02;6.93;;;;;;;;;;5046544;28;20199;-74
2021/12/23 12:09:58;;;;;;;9.70;7.70;;;;;;;;;;5035974;28;20225;-74
2021/12/23 12:12:25;;;;;;;11.70;8.82;;;;;;;;;;5042609;28;20212;-74
2021/12/23 12:14:55;;;;;;;11.38;8.43;;;;;;;;;;5046417;28;20199;-73
2021/12/23 12:17:49;;;;;;;10.60;8.23;;;;;;;;;;5043505;28;20289;-74
2021/12/23 12:20:21;;;;;;;8.43;6.85;;;;;;;;;;5041264;28;20258;-74
2021/12/23 12:22:51;;;;;;;9.77;7.47;;;;;;;;;;5042522;28;20195;-74
2021/12/23 12:25:37;;;;;;;10.50;8.02;;;;;;;;;;5054126;28;20764;-73
2021/12/23 12:28:13;;;;;;;9.88;7.32;;;;;;;;;;5035891;28;20539;-73
2021/12/23 12:30:40;;;;;;;9.20;7.20;;;;;;;;;;5045967;28;20198;-74
2021/12/23 12:33:11;;;;;;;12.93;7.63;;;;;;;;;;5040674;28;20685;-74
2021/12/23 12:35:41;;;;;;;9.95;7.80;;;;;;;;;;5041483;28;20199;-74
2021/12/23 12:38:14;;;;;;;10.95;6.97;;;;;;;;;;5042834;28;20495;-74
2021/12/23 12:40:57;;;;;;;11.40;7.72;;;;;;;;;;5032201;28;20613;-73
2021/12/23 12:43:32;;;;;;;10.98;7.40;;;;;;;;;;5035402;28;20617;-73
2021/12/23 12:45:59;;;;;;;7.22;6.25;;;;;;;;;;5039010;28;20229;-74
2021/12/23 12:48:48;;;;;;;11.80;8.30;;;;;;;;;;5040916;28;20202;-73
2021/12/23 12:51:23;;;;;;;7.00;6.05;;;;;;;;;;5052873;28;20677;-73
2021/12/23 12:53:51;;;;;;;8.25;6.57;;;;;;;;;;5043417;28;20222;-74
2021/12/23 12:56:21;;;;;;;9.15;7.68;;;;;;;;;;5038073;28;20234;-74
2021/12/23 12:58:52;;;;;;;9.48;6.82;;;;;;;;;;5039471;28;20251;-74
2021/12/23 13:01:30;;;;;;;11.88;7.95;;;;;;;;;;5046707;28;20288;-73
2021/12/23 13:03:57;;;;;;;9.88;7.22;;;;;;;;;;5035233;28;20201;-74
2021/12/23 13:06:36;;;;;;;8.98;6.70;;;;;;;;;;5046085;28;20297;-73
2021/12/23 13:09:07;;;;;;;8.25;6.78;;;;;;;;;;5032180;28;20210;-74
2021/12/23 13:11:36;;;;;;;9.07;7.20;;;;;;;;;;5036878;28;20196;-73
2021/12/23 13:14:11;;;;;;;7.90;6.97;;;;;;;;;;5036739;28;20578;-74
2021/12/23 13:16:50;;;;;;;10.35;7.53;;;;;;;;;;5039892;28;20205;-74
2021/12/23 13:19:21;;;;;;;9.75;7.88;;;;;;;;;;5048366;28;20293;-74
2021/12/23 13:21:51;;;;;;;8.90;7.40;;;;;;;;;;5049141;28;20194;-74
2021/12/23 13:24:19;;;;;;;9.73;6.68;;;;;;;;;;5043847;28;20294;-74
2021/12/23 13:26:46;;;;;;;7.18;5.95;;;;;;;;;;5046797;28;20194;-73
2021/12/23 13:29:13;;;;;;;7.50;6.57;;;;;;;;;;5049068;28;20559;-73
2021/12/23 13:31:41;;;;;;;8.82;6.45;;;;;;;;;;5051717;28;20260;-73
2021/12/23 13:34:09;;;;;;;9.13;7.32;;;;;;;;;;5051381;28;20301;-73
2021/12/23 13:36:39;;;;;;;9.20;6.00;;;;;;;;;;5051707;28;20202;-73
2021/12/23 13:39:08;;;;;;;9.63;7.07;;;;;;;;;;5046281;28;20206;-73
2021/12/23 13:41:37;;;;;;;9.85;7.22;;;;;;;;;;5042517;28;20670;-73
2021/12/23 13:44:19;;;;;;;9.65;7.00;;;;;;;;;;5052109;28;20245;-73
2021/12/23 13:46:55;;;;;;;9.65;7.45;;;;;;;;;;5045041;28;20268;-74
2021/12/23 13:49:31;;;;;;;11.50;7.05;;;;;;;;;;5053437;28;20191;-73
2021/12/23 13:51:58;;;;;;;10.23;7.80;;;;;;;;;;5052107;28;20194;-73
2021/12/23 13:54:32;;;;;;;9.45;6.57;;;;;;;;;;5047863;28;20223;-73
2021/12/23 13:56:59;;;;;;;12.43;7.85;;;;;;;;;;5041845;28;20192;-73
2021/12/23 13:59:28;;;;;;;8.55;6.35;;;;;;;;;;5044509;28;20598;-74
2021/12/23 14:01:56;;;;;;;9.30;7.30;;;;;;;;;;5041173;28;20218;-73
2021/12/23 14:04:31;;;;;;;9.23;6.97;;;;;;;;;;5047725;28;20399;-73
2021/12/23 14:10:05;;;;;;;10.13;7.55;;;;;;;;;;5033249;28;20699;-75
2021/12/23 14:12:43;;;;;;;8.73;7.32;;;;;;;;;;5047986;28;20211;-75
2021/12/23 14:15:11;;;;;;;8.52;6.85;;;;;;;;;;5047442;28;20245;-73
2021/12/23 14:17:40;;;;;;;17.10;7.72;;;;;;;;;;5044694;28;20203;-72
2021/12/23 14:23:14;;;;;;;8.15;6.68;;;;;;;;;;5049386;28;20676;-74
2021/12/23 14:25:58;;;;;;;9.10;7.57;;;;;;;;;;5047168;28;20206;-73
2021/12/23 14:28:27;;;;;;;10.18;7.22;;;;;;;;;;5042519;28;20202;-75
2021/12/23 14:30:56;;;;;;;11.80;8.75;;;;;;;;;;5047397;28;20204;-74
2021/12/23 14:33:24;;;;;;;10.43;6.95;;;;;;;;;;5030896;28;20207;-73
2021/12/23 14:35:55;;;;;;;10.10;7.20;;;;;;;;;;5036458;28;20203;-73
2021/12/23 14:38:30;;;;;;;10.52;7.18;;;;;;;;;;5047953;28;20199;-73
2021/12/23 14:40:59;;;;;;;11.45;8.90;;;;;;;;;;5043268;28;20225;-73
2021/12/23 14:43:27;;;;;;;12.02;8.25;;;;;;;;;;5048052;28;20195;-73
2021/12/23 14:45:57;;;;;;;11.02;7.85;;;;;;;;;;5048856;28;20191;-73
2021/12/23 14:48:25;;;;;;;11.98;9.02;;;;;;;;;;5044202;28;20203;-73
2021/12/23 14:51:01;;;;;;;9.80;7.30;;;;;;;;;;5042516;28;20202;-74
2021/12/23 14:53:28;;;;;;;12.57;7.70;;;;;;;;;;5050730;28;20275;-72
2021/12/23 14:55:57;;;;;;;9.25;7.05;;;;;;;;;;5046055;28;20217;-78
2021/12/23 14:58:24;;;;;;;10.50;7.35;;;;;;;;;;5050104;28;20602;-74
2021/12/23 15:00:53;;;;;;;9.10;7.32;;;;;;;;;;5044089;28;20253;-75
2021/12/23 15:03:22;;;;;;;10.13;7.55;;;;;;;;;;5052620;28;20260;-74
2021/12/23 15:05:51;;;;;;;11.07;7.72;;;;;;;;;;5049170;28;20651;-74
2021/12/23 15:08:19;;;;;;;9.50;7.60;;;;;;;;;;5049806;28;20643;-74
2021/12/23 15:10:47;;;;;;;11.38;8.70;;;;;;;;;;5044205;28;20286;-73
2021/12/23 15:13:25;;;;;;;13.63;8.50;;;;;;;;;;5052653;28;20195;-74
2021/12/23 15:15:58;;;;;;;9.77;8.23;;;;;;;;;;5052345;28;20203;-74
2021/12/23 15:18:35;;;;;;;9.90;8.02;;;;;;;;;;5046348;28;20764;-74
2021/12/23 15:21:05;;;;;;;14.80;10.25;;;;;;;;;;5039804;28;20559;-74
2021/12/23 15:23:43;;;;;;;13.50;9.10;;;;;;;;;;5051949;28;20214;-74
2021/12/23 15:26:22;;;;;;;13.25;7.95;;;;;;;;;;5051400;28;20195;-75
2021/12/23 15:29:10;;;;;;;10.75;7.85;;;;;;;;;;5060935;28;20194;-74
2021/12/23 15:31:39;;;;;;;13.40;8.40;;;;;;;;;;5052218;28;20206;-74
2021/12/23 15:34:09;;;;;;;11.70;7.18;;;;;;;;;;5050292;28;20268;-73
2021/12/23 15:36:37;;;;;;;12.23;8.48;;;;;;;;;;5052551;28;20559;-73
2021/12/23 15:39:14;;;;;;;11.45;8.35;;;;;;;;;;5049237;28;21786;-74
2021/12/23 15:41:41;;;;;;;10.80;8.23;;;;;;;;;;5051138;28;20205;-74
2021/12/23 15:44:08;;;;;;;14.52;9.50;;;;;;;;;;5050043;28;20716;-74
2021/12/23 15:46:35;;;;;;;12.50;8.48;;;;;;;;;;5049187;28;20203;-73
2021/12/23 15:49:05;;;;;;;10.77;9.18;;;;;;;;;;5045760;28;20194;-74